»·PEaware :: N614FT KSNA-KSNA

N614FT :: KSNA-KSNA

FLIGHT INFORMATION

Flight Status: Arrived
Operator: Privately registered:
United States
More flights under this callsign
Pilot: Carlos A. (16805)
Aircraft: PIPER PA-31/31P NAVAJO CHIEFTAIN
(PA31)
More flights by this aircraft type
Origin: KSNA John Wayne-Orange Co
United States
Destination: KSNA John Wayne-Orange Co
United States
More flights between these airports :: More routes between these airports
Route: SLI
File this flight plan on PilotEdge
Remarks:
Altitude:
(Current/Filed)
3,000ft
Speed:
(Current/Filed)
160kts
Departed: 11-Jan-23 08:59 PM
Arrived: 11-Jan-23 09:20 PM
Distance/Time
Traveled:
0nm/0:21
Distance/Time
To Go:
Arrived

Flight Plot

Page will automatically refresh every two minutes.


Map Options




Map Legend


Flown Route
Filed Route
Departure Airport
Arrival Airport
Navaid (VOR, NDB)
Fix

Horizontal Profiles

Position Reports

Time Latitude Longitude Heading Altitude Ground
Speed
11-Jan-23 20:10 33.675603 -117.871261 22 60ft 0kts
11-Jan-23 20:11 33.675603 -117.871261 22 60ft 0kts
11-Jan-23 20:12 33.675603 -117.871261 22 60ft 0kts
11-Jan-23 20:13 33.675603 -117.871261 22 60ft 0kts
11-Jan-23 20:14 33.675603 -117.871261 22 60ft 0kts
11-Jan-23 20:15 33.675603 -117.871261 22 60ft 0kts
11-Jan-23 20:16 33.675603 -117.871261 22 60ft 0kts
11-Jan-23 20:17 33.675604 -117.871261 22 60ft 0kts
11-Jan-23 20:18 33.675605 -117.871260 22 60ft 0kts
11-Jan-23 20:19 33.675606 -117.871260 22 60ft 0kts
11-Jan-23 20:20 33.675607 -117.871259 22 60ft 0kts
11-Jan-23 20:21 33.675608 -117.871258 22 60ft 0kts
11-Jan-23 20:22 33.675609 -117.871258 22 60ft 0kts
11-Jan-23 20:23 33.675611 -117.871257 22 60ft 0kts
11-Jan-23 20:24 33.675612 -117.871257 22 60ft 0kts
11-Jan-23 20:25 33.675613 -117.871256 22 60ft 0kts
11-Jan-23 20:26 33.675614 -117.871256 22 60ft 0kts
11-Jan-23 20:27 33.675615 -117.871255 22 60ft 0kts
11-Jan-23 20:28 33.675617 -117.871254 22 60ft 0kts
11-Jan-23 20:29 33.675618 -117.871254 22 60ft 0kts
11-Jan-23 20:30 33.675619 -117.871253 22 60ft 0kts
11-Jan-23 20:31 33.675620 -117.871253 22 60ft 0kts
11-Jan-23 20:32 33.675622 -117.871252 22 60ft 0kts
11-Jan-23 20:33 33.675623 -117.871251 22 60ft 0kts
11-Jan-23 20:34 33.675624 -117.871251 22 60ft 0kts
11-Jan-23 20:35 33.675625 -117.871250 22 60ft 0kts
11-Jan-23 20:36 33.675626 -117.871250 22 60ft 0kts
11-Jan-23 20:37 33.675628 -117.871249 22 60ft 0kts
11-Jan-23 20:38 33.675629 -117.871248 22 60ft 0kts
11-Jan-23 20:39 33.675630 -117.871248 22 60ft 0kts
11-Jan-23 20:40 33.675664 -117.871231 22 60ft 0kts
11-Jan-23 20:41 33.675691 -117.871111 107 60ft 0kts
11-Jan-23 20:42 33.675688 -117.871102 107 60ft 0kts
11-Jan-23 20:43 33.675685 -117.871089 107 60ft 0kts
11-Jan-23 20:44 33.675682 -117.871078 107 60ft 0kts
11-Jan-23 20:45 33.675682 -117.871076 107 60ft 0kts
11-Jan-23 20:46 33.675681 -117.871075 107 60ft 0kts
11-Jan-23 20:47 33.675681 -117.871073 107 60ft 0kts
11-Jan-23 20:48 33.675681 -117.871072 107 60ft 0kts
11-Jan-23 20:49 33.675680 -117.871071 107 60ft 0kts
11-Jan-23 20:50 33.675832 -117.870433 23 60ft 9kts
11-Jan-23 20:51 33.678148 -117.869029 25 60ft 9kts
11-Jan-23 20:52 33.680437 -117.867666 27 60ft 6kts
11-Jan-23 20:53 33.680826 -117.866437 120 60ft 0kts
11-Jan-23 20:54 33.680825 -117.866436 120 60ft 0kts
11-Jan-23 20:55 33.680825 -117.866435 120 60ft 0kts
11-Jan-23 20:56 33.680824 -117.866434 120 60ft 0kts
11-Jan-23 20:57 33.680764 -117.866312 120 60ft 6kts
11-Jan-23 20:58 33.676378 -117.868438 207 94ft 88kts
11-Jan-23 20:59 33.659366 -117.891473 240 1431ft 104kts
11-Jan-23 21:00 33.644478 -117.920846 239 2673ft 112kts
11-Jan-23 21:01 33.626222 -117.954814 242 3042ft 132kts
11-Jan-23 21:02 33.604870 -118.001940 242 2972ft 176kts
11-Jan-23 21:03 33.601708 -118.053328 326 2944ft 165kts
11-Jan-23 21:04 33.641587 -118.037094 36 3074ft 162kts
11-Jan-23 21:05 33.679142 -118.006688 30 2993ft 159kts
11-Jan-23 21:06 33.717359 -117.978805 26 3072ft 163kts
11-Jan-23 21:07 33.758991 -117.955137 21 2954ft 160kts
11-Jan-23 21:08 33.799597 -117.933846 23 3025ft 160kts
11-Jan-23 21:09 33.842267 -117.911536 24 2916ft 168kts
11-Jan-23 21:10 33.879798 -117.886180 74 3060ft 153kts
11-Jan-23 21:11 33.886758 -117.832876 80 3030ft 167kts
11-Jan-23 21:12 33.892357 -117.777485 79 3056ft 155kts
11-Jan-23 21:13 33.862553 -117.752581 203 3071ft 173kts
11-Jan-23 21:14 33.819962 -117.779280 205 2954ft 165kts
11-Jan-23 21:15 33.779564 -117.802887 206 2329ft 153kts
11-Jan-23 21:16 33.744995 -117.824700 211 1388ft 123kts
11-Jan-23 21:17 33.717824 -117.842615 209 872ft 108kts
11-Jan-23 21:18 33.691662 -117.858413 206 282ft 98kts
11-Jan-23 21:19 33.676241 -117.868486 207 60ft 21kts
11-Jan-23 21:20 33.675713 -117.869638 297 60ft 0kts
11-Jan-23 21:21 33.675714 -117.869640 297 60ft 0kts
11-Jan-23 21:22 33.676073 -117.870233 351 60ft 2kts
11-Jan-23 21:23 33.676833 -117.870570 234 60ft 6kts
11-Jan-23 21:24 33.675574 -117.871289 209 60ft 0kts
11-Jan-23 21:25 33.675573 -117.871290 209 60ft 0kts
11-Jan-23 21:26 33.675573 -117.871290 209 60ft 0kts
11-Jan-23 21:27 33.675573 -117.871290 209 60ft 0kts
11-Jan-23 21:28 33.675573 -117.871290 209 60ft 0kts
11-Jan-23 21:29 33.675573 -117.871290 209 60ft 0kts

Navigation Log

Ident Type
Flight plan parsing failed, navigation log unavailable